sensor_id;sensor_type;location;lat;lon;timestamp;P1;durP1;ratioP1;P2;durP2;ratioP2
4466;SDS011;2246;42.664;23.278;2022-07-10T00:01:32;16.17;;;12.00;;
4466;SDS011;2246;42.664;23.278;2022-07-10T00:03:58;15.68;;;11.98;;
4466;SDS011;2246;42.664;23.278;2022-07-10T00:06:24;15.18;;;11.90;;
4466;SDS011;2246;42.664;23.278;2022-07-10T00:08:50;15.13;;;11.25;;
4466;SDS011;2246;42.664;23.278;2022-07-10T00:11:16;14.20;;;11.75;;
4466;SDS011;2246;42.664;23.278;2022-07-10T00:13:43;14.50;;;10.85;;
4466;SDS011;2246;42.664;23.278;2022-07-10T00:16:09;15.82;;;12.23;;
4466;SDS011;2246;42.664;23.278;2022-07-10T00:18:35;14.82;;;12.20;;
4466;SDS011;2246;42.664;23.278;2022-07-10T00:21:01;13.15;;;11.60;;
4466;SDS011;2246;42.664;23.278;2022-07-10T00:23:27;16.42;;;11.48;;
4466;SDS011;2246;42.664;23.278;2022-07-10T00:25:53;17.92;;;12.20;;
4466;SDS011;2246;42.664;23.278;2022-07-10T00:28:19;13.95;;;11.75;;
4466;SDS011;2246;42.664;23.278;2022-07-10T00:30:45;18.77;;;12.68;;
4466;SDS011;2246;42.664;23.278;2022-07-10T00:33:11;14.18;;;11.98;;
4466;SDS011;2246;42.664;23.278;2022-07-10T00:35:37;13.82;;;11.35;;
4466;SDS011;2246;42.664;23.278;2022-07-10T00:38:04;14.65;;;11.32;;
4466;SDS011;2246;42.664;23.278;2022-07-10T00:40:30;16.17;;;12.07;;
4466;SDS011;2246;42.664;23.278;2022-07-10T00:42:56;18.17;;;12.50;;
4466;SDS011;2246;42.664;23.278;2022-07-10T00:45:22;16.30;;;12.68;;
4466;SDS011;2246;42.664;23.278;2022-07-10T00:47:48;17.67;;;12.70;;
4466;SDS011;2246;42.664;23.278;2022-07-10T00:50:14;17.02;;;12.10;;
4466;SDS011;2246;42.664;23.278;2022-07-10T00:52:40;14.13;;;12.05;;
4466;SDS011;2246;42.664;23.278;2022-07-10T00:55:07;15.60;;;11.68;;
4466;SDS011;2246;42.664;23.278;2022-07-10T00:57:33;14.20;;;12.20;;
4466;SDS011;2246;42.664;23.278;2022-07-10T01:00:01;14.23;;;11.02;;
4466;SDS011;2246;42.664;23.278;2022-07-10T01:02:27;15.18;;;11.70;;
4466;SDS011;2246;42.664;23.278;2022-07-10T01:04:53;20.67;;;11.13;;
4466;SDS011;2246;42.664;23.278;2022-07-10T01:07:22;12.27;;;10.98;;
4466;SDS011;2246;42.664;23.278;2022-07-10T01:09:48;15.30;;;11.23;;
4466;SDS011;2246;42.664;23.278;2022-07-10T01:12:14;18.85;;;11.80;;
4466;SDS011;2246;42.664;23.278;2022-07-10T01:14:41;13.90;;;11.70;;
4466;SDS011;2246;42.664;23.278;2022-07-10T01:17:07;13.82;;;11.23;;
4466;SDS011;2246;42.664;23.278;2022-07-10T01:19:34;15.68;;;12.05;;
4466;SDS011;2246;42.664;23.278;2022-07-10T01:22:00;14.27;;;12.20;;
4466;SDS011;2246;42.664;23.278;2022-07-10T01:24:26;15.05;;;11.98;;
4466;SDS011;2246;42.664;23.278;2022-07-10T01:26:53;16.88;;;10.75;;
4466;SDS011;2246;42.664;23.278;2022-07-10T01:29:19;13.68;;;11.43;;
4466;SDS011;2246;42.664;23.278;2022-07-10T01:31:47;11.70;;;10.38;;
4466;SDS011;2246;42.664;23.278;2022-07-10T01:34:13;12.45;;;10.93;;
4466;SDS011;2246;42.664;23.278;2022-07-10T01:36:39;12.10;;;10.77;;
4466;SDS011;2246;42.664;23.278;2022-07-10T01:39:05;14.98;;;10.50;;
4466;SDS011;2246;42.664;23.278;2022-07-10T01:41:32;21.15;;;10.55;;
4466;SDS011;2246;42.664;23.278;2022-07-10T01:43:58;12.27;;;10.48;;
4466;SDS011;2246;42.664;23.278;2022-07-10T01:46:24;20.50;;;11.30;;
4466;SDS011;2246;42.664;23.278;2022-07-10T01:48:51;13.77;;;10.43;;
4466;SDS011;2246;42.664;23.278;2022-07-10T01:51:18;16.38;;;11.75;;
4466;SDS011;2246;42.664;23.278;2022-07-10T01:53:44;16.65;;;10.20;;
4466;SDS011;2246;42.664;23.278;2022-07-10T01:56:11;10.85;;;9.02;;
4466;SDS011;2246;42.664;23.278;2022-07-10T01:58:37;15.45;;;10.65;;
4466;SDS011;2246;42.664;23.278;2022-07-10T02:01:04;15.52;;;10.30;;
4466;SDS011;2246;42.664;23.278;2022-07-10T02:03:30;14.93;;;9.82;;
4466;SDS011;2246;42.664;23.278;2022-07-10T02:06:15;12.43;;;9.55;;
4466;SDS011;2246;42.664;23.278;2022-07-10T02:08:41;15.00;;;9.85;;
4466;SDS011;2246;42.664;23.278;2022-07-10T02:11:08;14.48;;;10.27;;
4466;SDS011;2246;42.664;23.278;2022-07-10T02:13:34;15.95;;;9.60;;
4466;SDS011;2246;42.664;23.278;2022-07-10T02:16:00;14.45;;;9.73;;
4466;SDS011;2246;42.664;23.278;2022-07-10T02:18:26;13.48;;;9.63;;
4466;SDS011;2246;42.664;23.278;2022-07-10T02:20:52;16.98;;;10.05;;
4466;SDS011;2246;42.664;23.278;2022-07-10T02:23:19;13.85;;;10.00;;
4466;SDS011;2246;42.664;23.278;2022-07-10T02:25:45;12.20;;;9.48;;
4466;SDS011;2246;42.664;23.278;2022-07-10T02:28:11;16.73;;;9.75;;
4466;SDS011;2246;42.664;23.278;2022-07-10T02:30:37;14.48;;;10.18;;
4466;SDS011;2246;42.664;23.278;2022-07-10T02:33:03;12.32;;;9.93;;
4466;SDS011;2246;42.664;23.278;2022-07-10T02:35:29;19.02;;;10.38;;
4466;SDS011;2246;42.664;23.278;2022-07-10T02:37:55;15.32;;;10.05;;
4466;SDS011;2246;42.664;23.278;2022-07-10T02:40:22;15.38;;;9.88;;
4466;SDS011;2246;42.664;23.278;2022-07-10T02:42:48;13.40;;;9.50;;
4466;SDS011;2246;42.664;23.278;2022-07-10T02:45:14;10.52;;;9.40;;
4466;SDS011;2246;42.664;23.278;2022-07-10T02:47:40;13.93;;;9.73;;
4466;SDS011;2246;42.664;23.278;2022-07-10T02:50:06;15.60;;;10.10;;
4466;SDS011;2246;42.664;23.278;2022-07-10T02:52:32;16.50;;;9.90;;
4466;SDS011;2246;42.664;23.278;2022-07-10T02:54:58;14.23;;;9.38;;
4466;SDS011;2246;42.664;23.278;2022-07-10T02:57:24;12.48;;;9.13;;
4466;SDS011;2246;42.664;23.278;2022-07-10T02:59:51;10.55;;;8.68;;
4466;SDS011;2246;42.664;23.278;2022-07-10T03:02:17;11.93;;;9.40;;
4466;SDS011;2246;42.664;23.278;2022-07-10T03:04:43;12.25;;;9.00;;
4466;SDS011;2246;42.664;23.278;2022-07-10T03:07:09;11.02;;;9.07;;
4466;SDS011;2246;42.664;23.278;2022-07-10T03:09:35;16.40;;;9.05;;
4466;SDS011;2246;42.664;23.278;2022-07-10T03:12:01;18.52;;;9.57;;
4466;SDS011;2246;42.664;23.278;2022-07-10T03:14:28;11.55;;;9.18;;
4466;SDS011;2246;42.664;23.278;2022-07-10T03:16:54;10.90;;;9.75;;
4466;SDS011;2246;42.664;23.278;2022-07-10T03:19:20;11.10;;;9.02;;
4466;SDS011;2246;42.664;23.278;2022-07-10T03:21:46;10.98;;;9.10;;
4466;SDS011;2246;42.664;23.278;2022-07-10T03:24:12;14.73;;;9.27;;
4466;SDS011;2246;42.664;23.278;2022-07-10T03:26:38;11.60;;;9.98;;
4466;SDS011;2246;42.664;23.278;2022-07-10T03:29:04;13.55;;;9.32;;
4466;SDS011;2246;42.664;23.278;2022-07-10T03:31:30;15.07;;;10.05;;
4466;SDS011;2246;42.664;23.278;2022-07-10T03:33:56;18.90;;;10.48;;
4466;SDS011;2246;42.664;23.278;2022-07-10T03:36:22;12.73;;;9.68;;
4466;SDS011;2246;42.664;23.278;2022-07-10T03:38:49;16.60;;;9.98;;
4466;SDS011;2246;42.664;23.278;2022-07-10T03:41:15;14.52;;;10.00;;
4466;SDS011;2246;42.664;23.278;2022-07-10T03:43:41;17.30;;;9.57;;
4466;SDS011;2246;42.664;23.278;2022-07-10T03:46:07;12.38;;;9.23;;
4466;SDS011;2246;42.664;23.278;2022-07-10T03:48:33;12.90;;;9.85;;
4466;SDS011;2246;42.664;23.278;2022-07-10T03:50:59;12.50;;;9.80;;
4466;SDS011;2246;42.664;23.278;2022-07-10T03:53:25;12.95;;;9.73;;
4466;SDS011;2246;42.664;23.278;2022-07-10T03:55:52;11.82;;;9.05;;
4466;SDS011;2246;42.664;23.278;2022-07-10T03:58:19;13.23;;;9.30;;
4466;SDS011;2246;42.664;23.278;2022-07-10T04:00:45;14.32;;;9.63;;
4466;SDS011;2246;42.664;23.278;2022-07-10T04:03:11;10.75;;;9.18;;
4466;SDS011;2246;42.664;23.278;2022-07-10T04:05:38;11.68;;;9.73;;
4466;SDS011;2246;42.664;23.278;2022-07-10T04:08:05;12.68;;;9.25;;
4466;SDS011;2246;42.664;23.278;2022-07-10T04:10:31;11.88;;;8.85;;
4466;SDS011;2246;42.664;23.278;2022-07-10T04:12:58;17.27;;;8.40;;
4466;SDS011;2246;42.664;23.278;2022-07-10T04:15:24;18.35;;;9.30;;
4466;SDS011;2246;42.664;23.278;2022-07-10T04:17:50;14.85;;;9.00;;
4466;SDS011;2246;42.664;23.278;2022-07-10T04:20:16;14.82;;;9.50;;
4466;SDS011;2246;42.664;23.278;2022-07-10T04:22:43;14.30;;;9.18;;
4466;SDS011;2246;42.664;23.278;2022-07-10T04:25:09;16.88;;;9.73;;
4466;SDS011;2246;42.664;23.278;2022-07-10T04:27:35;14.73;;;9.20;;
4466;SDS011;2246;42.664;23.278;2022-07-10T04:30:02;9.05;;;8.07;;
4466;SDS011;2246;42.664;23.278;2022-07-10T04:32:28;13.13;;;8.13;;
4466;SDS011;2246;42.664;23.278;2022-07-10T04:34:54;12.10;;;8.48;;
4466;SDS011;2246;42.664;23.278;2022-07-10T04:37:21;10.45;;;7.65;;
4466;SDS011;2246;42.664;23.278;2022-07-10T04:39:47;10.93;;;7.68;;
4466;SDS011;2246;42.664;23.278;2022-07-10T04:42:13;13.50;;;7.30;;
4466;SDS011;2246;42.664;23.278;2022-07-10T04:44:39;9.98;;;7.03;;
4466;SDS011;2246;42.664;23.278;2022-07-10T04:47:05;9.80;;;7.40;;
4466;SDS011;2246;42.664;23.278;2022-07-10T04:49:32;12.93;;;8.02;;
4466;SDS011;2246;42.664;23.278;2022-07-10T04:51:58;12.07;;;8.20;;
4466;SDS011;2246;42.664;23.278;2022-07-10T04:54:24;16.88;;;7.25;;
4466;SDS011;2246;42.664;23.278;2022-07-10T04:56:50;13.55;;;7.85;;
4466;SDS011;2246;42.664;23.278;2022-07-10T04:59:16;9.68;;;6.90;;
4466;SDS011;2246;42.664;23.278;2022-07-10T05:01:43;13.73;;;7.20;;
4466;SDS011;2246;42.664;23.278;2022-07-10T05:04:09;10.65;;;7.10;;
4466;SDS011;2246;42.664;23.278;2022-07-10T05:06:35;9.07;;;6.82;;
4466;SDS011;2246;42.664;23.278;2022-07-10T05:09:02;6.80;;;6.10;;
4466;SDS011;2246;42.664;23.278;2022-07-10T05:11:28;8.18;;;6.38;;
4466;SDS011;2246;42.664;23.278;2022-07-10T05:13:55;10.43;;;6.50;;
4466;SDS011;2246;42.664;23.278;2022-07-10T05:16:21;9.85;;;6.22;;
4466;SDS011;2246;42.664;23.278;2022-07-10T05:18:47;8.98;;;6.55;;
4466;SDS011;2246;42.664;23.278;2022-07-10T05:21:13;8.10;;;5.72;;
4466;SDS011;2246;42.664;23.278;2022-07-10T05:23:40;8.38;;;5.07;;
4466;SDS011;2246;42.664;23.278;2022-07-10T05:26:06;5.82;;;4.68;;
4466;SDS011;2246;42.664;23.278;2022-07-10T05:28:32;4.72;;;4.05;;
4466;SDS011;2246;42.664;23.278;2022-07-10T05:30:58;10.50;;;4.28;;
4466;SDS011;2246;42.664;23.278;2022-07-10T05:33:24;8.50;;;4.35;;
4466;SDS011;2246;42.664;23.278;2022-07-10T05:35:54;6.97;;;3.83;;
4466;SDS011;2246;42.664;23.278;2022-07-10T05:38:20;4.75;;;3.75;;
4466;SDS011;2246;42.664;23.278;2022-07-10T05:40:46;10.93;;;4.07;;
4466;SDS011;2246;42.664;23.278;2022-07-10T05:43:13;7.75;;;4.18;;
4466;SDS011;2246;42.664;23.278;2022-07-10T05:45:39;7.05;;;3.83;;
4466;SDS011;2246;42.664;23.278;2022-07-10T05:48:05;5.35;;;3.75;;
4466;SDS011;2246;42.664;23.278;2022-07-10T05:50:32;4.53;;;3.90;;
4466;SDS011;2246;42.664;23.278;2022-07-10T05:52:58;7.75;;;3.80;;
4466;SDS011;2246;42.664;23.278;2022-07-10T05:55:24;6.85;;;3.92;;
4466;SDS011;2246;42.664;23.278;2022-07-10T05:57:50;4.20;;;3.70;;
4466;SDS011;2246;42.664;23.278;2022-07-10T06:00:16;7.03;;;3.80;;
4466;SDS011;2246;42.664;23.278;2022-07-10T06:02:42;6.75;;;4.63;;
4466;SDS011;2246;42.664;23.278;2022-07-10T06:05:09;7.80;;;4.22;;
4466;SDS011;2246;42.664;23.278;2022-07-10T06:07:35;9.13;;;4.20;;
4466;SDS011;2246;42.664;23.278;2022-07-10T06:10:02;5.60;;;3.78;;
4466;SDS011;2246;42.664;23.278;2022-07-10T06:12:28;4.75;;;3.80;;
4466;SDS011;2246;42.664;23.278;2022-07-10T06:14:54;6.22;;;3.70;;
4466;SDS011;2246;42.664;23.278;2022-07-10T06:17:20;5.13;;;3.78;;
4466;SDS011;2246;42.664;23.278;2022-07-10T06:19:47;5.70;;;3.80;;
4466;SDS011;2246;42.664;23.278;2022-07-10T06:22:13;6.65;;;3.45;;
4466;SDS011;2246;42.664;23.278;2022-07-10T06:25:01;4.65;;;3.58;;
4466;SDS011;2246;42.664;23.278;2022-07-10T06:27:28;5.75;;;4.00;;
4466;SDS011;2246;42.664;23.278;2022-07-10T06:29:54;9.35;;;4.35;;
4466;SDS011;2246;42.664;23.278;2022-07-10T06:32:20;5.22;;;3.78;;
4466;SDS011;2246;42.664;23.278;2022-07-10T06:34:46;5.50;;;3.63;;
4466;SDS011;2246;42.664;23.278;2022-07-10T06:37:12;5.30;;;3.38;;
4466;SDS011;2246;42.664;23.278;2022-07-10T06:39:38;6.85;;;3.65;;
4466;SDS011;2246;42.664;23.278;2022-07-10T06:42:07;4.75;;;3.58;;
4466;SDS011;2246;42.664;23.278;2022-07-10T06:44:34;8.98;;;3.70;;
4466;SDS011;2246;42.664;23.278;2022-07-10T06:47:00;8.23;;;3.58;;
4466;SDS011;2246;42.664;23.278;2022-07-10T06:49:45;4.95;;;3.38;;
4466;SDS011;2246;42.664;23.278;2022-07-10T06:52:13;6.65;;;3.70;;
4466;SDS011;2246;42.664;23.278;2022-07-10T06:54:39;6.07;;;3.35;;
4466;SDS011;2246;42.664;23.278;2022-07-10T06:57:05;6.38;;;3.40;;
4466;SDS011;2246;42.664;23.278;2022-07-10T06:59:32;6.70;;;3.28;;
4466;SDS011;2246;42.664;23.278;2022-07-10T07:01:58;5.60;;;3.38;;
4466;SDS011;2246;42.664;23.278;2022-07-10T07:04:24;3.85;;;3.53;;
4466;SDS011;2246;42.664;23.278;2022-07-10T07:06:50;5.47;;;3.35;;
4466;SDS011;2246;42.664;23.278;2022-07-10T07:09:16;4.45;;;2.97;;
4466;SDS011;2246;42.664;23.278;2022-07-10T07:11:42;5.32;;;2.92;;
4466;SDS011;2246;42.664;23.278;2022-07-10T07:14:08;5.75;;;3.90;;
4466;SDS011;2246;42.664;23.278;2022-07-10T07:16:34;7.05;;;3.35;;
4466;SDS011;2246;42.664;23.278;2022-07-10T07:19:07;9.15;;;3.40;;
4466;SDS011;2246;42.664;23.278;2022-07-10T07:21:33;4.30;;;3.40;;
4466;SDS011;2246;42.664;23.278;2022-07-10T07:24:18;6.63;;;3.42;;
4466;SDS011;2246;42.664;23.278;2022-07-10T07:26:45;7.07;;;3.47;;
4466;SDS011;2246;42.664;23.278;2022-07-10T07:29:12;6.80;;;3.28;;
4466;SDS011;2246;42.664;23.278;2022-07-10T07:31:39;9.55;;;3.30;;
4466;SDS011;2246;42.664;23.278;2022-07-10T07:34:05;3.63;;;2.80;;
4466;SDS011;2246;42.664;23.278;2022-07-10T07:36:31;5.70;;;2.97;;
4466;SDS011;2246;42.664;23.278;2022-07-10T07:38:57;5.53;;;3.78;;
4466;SDS011;2246;42.664;23.278;2022-07-10T07:41:23;5.88;;;3.08;;
4466;SDS011;2246;42.664;23.278;2022-07-10T07:43:49;8.75;;;3.03;;
4466;SDS011;2246;42.664;23.278;2022-07-10T07:46:16;4.53;;;2.90;;
4466;SDS011;2246;42.664;23.278;2022-07-10T07:48:42;4.82;;;2.97;;
4466;SDS011;2246;42.664;23.278;2022-07-10T07:51:08;5.68;;;3.20;;
4466;SDS011;2246;42.664;23.278;2022-07-10T07:53:34;5.65;;;3.00;;
4466;SDS011;2246;42.664;23.278;2022-07-10T07:56:00;7.85;;;3.10;;
4466;SDS011;2246;42.664;23.278;2022-07-10T07:58:26;3.75;;;2.60;;
4466;SDS011;2246;42.664;23.278;2022-07-10T08:00:52;7.90;;;3.03;;
4466;SDS011;2246;42.664;23.278;2022-07-10T08:03:18;5.07;;;3.00;;
4466;SDS011;2246;42.664;23.278;2022-07-10T08:05:44;6.65;;;3.00;;
4466;SDS011;2246;42.664;23.278;2022-07-10T08:08:10;7.57;;;3.60;;
4466;SDS011;2246;42.664;23.278;2022-07-10T08:10:37;5.93;;;3.28;;
4466;SDS011;2246;42.664;23.278;2022-07-10T08:13:03;10.07;;;2.60;;
4466;SDS011;2246;42.664;23.278;2022-07-10T08:15:29;5.78;;;2.83;;
4466;SDS011;2246;42.664;23.278;2022-07-10T08:17:56;5.28;;;2.50;;
4466;SDS011;2246;42.664;23.278;2022-07-10T08:20:23;8.18;;;3.40;;
4466;SDS011;2246;42.664;23.278;2022-07-10T08:22:49;6.97;;;2.90;;
4466;SDS011;2246;42.664;23.278;2022-07-10T08:25:18;5.00;;;3.10;;
4466;SDS011;2246;42.664;23.278;2022-07-10T08:27:44;4.88;;;2.80;;
4466;SDS011;2246;42.664;23.278;2022-07-10T08:30:10;8.90;;;2.80;;
4466;SDS011;2246;42.664;23.278;2022-07-10T08:32:37;9.60;;;3.00;;
4466;SDS011;2246;42.664;23.278;2022-07-10T08:35:04;6.22;;;4.00;;
4466;SDS011;2246;42.664;23.278;2022-07-10T08:37:30;6.53;;;2.42;;
4466;SDS011;2246;42.664;23.278;2022-07-10T08:40:02;6.57;;;2.83;;
4466;SDS011;2246;42.664;23.278;2022-07-10T08:42:28;6.32;;;2.50;;
4466;SDS011;2246;42.664;23.278;2022-07-10T08:47:22;5.18;;;3.17;;
4466;SDS011;2246;42.664;23.278;2022-07-10T08:49:49;6.22;;;3.13;;
4466;SDS011;2246;42.664;23.278;2022-07-10T08:54:41;4.82;;;3.50;;
4466;SDS011;2246;42.664;23.278;2022-07-10T08:57:09;8.75;;;2.55;;
4466;SDS011;2246;42.664;23.278;2022-07-10T08:59:35;4.22;;;2.90;;
4466;SDS011;2246;42.664;23.278;2022-07-10T09:02:01;8.73;;;2.58;;
4466;SDS011;2246;42.664;23.278;2022-07-10T09:04:27;6.40;;;3.05;;
4466;SDS011;2246;42.664;23.278;2022-07-10T09:06:54;5.18;;;2.67;;
4466;SDS011;2246;42.664;23.278;2022-07-10T09:09:20;8.40;;;2.65;;
4466;SDS011;2246;42.664;23.278;2022-07-10T09:11:47;8.23;;;2.60;;
4466;SDS011;2246;42.664;23.278;2022-07-10T09:14:16;5.00;;;2.40;;
4466;SDS011;2246;42.664;23.278;2022-07-10T09:16:44;5.25;;;3.13;;
4466;SDS011;2246;42.664;23.278;2022-07-10T09:21:39;6.22;;;2.67;;
4466;SDS011;2246;42.664;23.278;2022-07-10T09:24:07;4.53;;;2.53;;
4466;SDS011;2246;42.664;23.278;2022-07-10T09:26:35;6.07;;;2.38;;
4466;SDS011;2246;42.664;23.278;2022-07-10T09:29:11;5.57;;;2.38;;
4466;SDS011;2246;42.664;23.278;2022-07-10T09:31:50;4.40;;;2.50;;
4466;SDS011;2246;42.664;23.278;2022-07-10T09:34:16;5.03;;;2.60;;
4466;SDS011;2246;42.664;23.278;2022-07-10T09:36:43;3.03;;;2.53;;
4466;SDS011;2246;42.664;23.278;2022-07-10T09:39:09;3.92;;;2.70;;
4466;SDS011;2246;42.664;23.278;2022-07-10T09:41:35;7.55;;;2.40;;
4466;SDS011;2246;42.664;23.278;2022-07-10T09:44:02;5.60;;;2.47;;
4466;SDS011;2246;42.664;23.278;2022-07-10T09:49:08;7.88;;;2.70;;
4466;SDS011;2246;42.664;23.278;2022-07-10T09:51:35;4.30;;;2.28;;
4466;SDS011;2246;42.664;23.278;2022-07-10T09:54:02;6.90;;;2.55;;
4466;SDS011;2246;42.664;23.278;2022-07-10T09:56:38;4.05;;;2.55;;
4466;SDS011;2246;42.664;23.278;2022-07-10T10:01:32;8.90;;;2.40;;
4466;SDS011;2246;42.664;23.278;2022-07-10T10:03:58;3.67;;;2.20;;
4466;SDS011;2246;42.664;23.278;2022-07-10T10:06:26;5.82;;;2.63;;
4466;SDS011;2246;42.664;23.278;2022-07-10T10:09:03;8.23;;;2.28;;
4466;SDS011;2246;42.664;23.278;2022-07-10T10:11:33;5.80;;;2.60;;
4466;SDS011;2246;42.664;23.278;2022-07-10T10:14:06;9.70;;;2.60;;
4466;SDS011;2246;42.664;23.278;2022-07-10T10:16:33;3.53;;;2.10;;
4466;SDS011;2246;42.664;23.278;2022-07-10T10:18:59;4.18;;;1.90;;
4466;SDS011;2246;42.664;23.278;2022-07-10T10:21:44;7.88;;;3.17;;
4466;SDS011;2246;42.664;23.278;2022-07-10T10:24:10;4.10;;;2.25;;
4466;SDS011;2246;42.664;23.278;2022-07-10T10:26:36;4.30;;;2.45;;
4466;SDS011;2246;42.664;23.278;2022-07-10T10:29:03;4.10;;;2.00;;
4466;SDS011;2246;42.664;23.278;2022-07-10T10:31:30;4.05;;;2.15;;
4466;SDS011;2246;42.664;23.278;2022-07-10T10:33:57;4.82;;;2.35;;
4466;SDS011;2246;42.664;23.278;2022-07-10T10:39:09;7.15;;;2.55;;
4466;SDS011;2246;42.664;23.278;2022-07-10T10:41:42;6.20;;;2.00;;
4466;SDS011;2246;42.664;23.278;2022-07-10T10:46:38;2.47;;;1.98;;
4466;SDS011;2246;42.664;23.278;2022-07-10T10:49:19;5.82;;;2.10;;
4466;SDS011;2246;42.664;23.278;2022-07-10T10:54:24;8.43;;;2.45;;
4466;SDS011;2246;42.664;23.278;2022-07-10T10:59:44;5.45;;;2.40;;
4466;SDS011;2246;42.664;23.278;2022-07-10T11:02:20;5.35;;;2.03;;
4466;SDS011;2246;42.664;23.278;2022-07-10T11:04:47;6.30;;;2.20;;
4466;SDS011;2246;42.664;23.278;2022-07-10T11:07:20;4.25;;;1.92;;
4466;SDS011;2246;42.664;23.278;2022-07-10T11:13:01;6.55;;;2.08;;
4466;SDS011;2246;42.664;23.278;2022-07-10T11:15:28;2.85;;;1.90;;
4466;SDS011;2246;42.664;23.278;2022-07-10T11:20:34;5.57;;;2.00;;
4466;SDS011;2246;42.664;23.278;2022-07-10T11:28:08;5.57;;;1.98;;
4466;SDS011;2246;42.664;23.278;2022-07-10T11:33:13;6.88;;;2.22;;
4466;SDS011;2246;42.664;23.278;2022-07-10T11:35:40;5.80;;;2.10;;
4466;SDS011;2246;42.664;23.278;2022-07-10T11:38:06;2.55;;;1.80;;
4466;SDS011;2246;42.664;23.278;2022-07-10T11:40:35;12.48;;;2.30;;
4466;SDS011;2246;42.664;23.278;2022-07-10T11:43:02;2.10;;;1.90;;
4466;SDS011;2246;42.664;23.278;2022-07-10T11:45:32;6.80;;;1.88;;
4466;SDS011;2246;42.664;23.278;2022-07-10T11:48:00;8.13;;;2.15;;
4466;SDS011;2246;42.664;23.278;2022-07-10T11:50:26;4.47;;;2.10;;
4466;SDS011;2246;42.664;23.278;2022-07-10T11:52:53;8.05;;;2.17;;
4466;SDS011;2246;42.664;23.278;2022-07-10T11:55:20;4.18;;;2.00;;
4466;SDS011;2246;42.664;23.278;2022-07-10T11:57:47;6.50;;;2.40;;
4466;SDS011;2246;42.664;23.278;2022-07-10T12:00:30;7.47;;;2.00;;
4466;SDS011;2246;42.664;23.278;2022-07-10T12:02:57;4.15;;;2.10;;
4466;SDS011;2246;42.664;23.278;2022-07-10T12:05:36;2.40;;;1.85;;
4466;SDS011;2246;42.664;23.278;2022-07-10T12:08:02;8.02;;;1.88;;
4466;SDS011;2246;42.664;23.278;2022-07-10T12:10:29;4.63;;;1.83;;
4466;SDS011;2246;42.664;23.278;2022-07-10T12:13:03;9.93;;;1.90;;
4466;SDS011;2246;42.664;23.278;2022-07-10T12:15:39;3.97;;;1.60;;
4466;SDS011;2246;42.664;23.278;2022-07-10T12:18:09;8.20;;;2.00;;
4466;SDS011;2246;42.664;23.278;2022-07-10T12:20:40;3.97;;;1.70;;
4466;SDS011;2246;42.664;23.278;2022-07-10T12:23:10;2.50;;;1.90;;
4466;SDS011;2246;42.664;23.278;2022-07-10T12:25:37;7.45;;;1.85;;
4466;SDS011;2246;42.664;23.278;2022-07-10T12:28:04;2.85;;;1.83;;
4466;SDS011;2246;42.664;23.278;2022-07-10T12:30:39;2.42;;;1.63;;
4466;SDS011;2246;42.664;23.278;2022-07-10T12:33:12;3.25;;;1.70;;
4466;SDS011;2246;42.664;23.278;2022-07-10T12:38:21;3.90;;;1.70;;
4466;SDS011;2246;42.664;23.278;2022-07-10T12:40:48;2.80;;;1.52;;
4466;SDS011;2246;42.664;23.278;2022-07-10T12:43:23;3.75;;;1.50;;
4466;SDS011;2246;42.664;23.278;2022-07-10T12:48:36;3.03;;;1.42;;
4466;SDS011;2246;42.664;23.278;2022-07-10T12:51:25;2.55;;;1.58;;
4466;SDS011;2246;42.664;23.278;2022-07-10T12:53:51;8.13;;;1.70;;
4466;SDS011;2246;42.664;23.278;2022-07-10T12:56:27;6.47;;;1.58;;
4466;SDS011;2246;42.664;23.278;2022-07-10T12:58:54;6.07;;;1.30;;
4466;SDS011;2246;42.664;23.278;2022-07-10T13:01:20;5.85;;;1.58;;
4466;SDS011;2246;42.664;23.278;2022-07-10T13:03:46;2.20;;;1.20;;
4466;SDS011;2246;42.664;23.278;2022-07-10T13:06:31;1.75;;;1.00;;
4466;SDS011;2246;42.664;23.278;2022-07-10T13:08:57;4.00;;;1.15;;
4466;SDS011;2246;42.664;23.278;2022-07-10T13:11:23;2.30;;;1.30;;
4466;SDS011;2246;42.664;23.278;2022-07-10T13:13:49;2.03;;;1.00;;
4466;SDS011;2246;42.664;23.278;2022-07-10T13:16:16;6.40;;;1.45;;
4466;SDS011;2246;42.664;23.278;2022-07-10T13:18:42;3.50;;;1.30;;
4466;SDS011;2246;42.664;23.278;2022-07-10T13:21:09;3.90;;;1.20;;
4466;SDS011;2246;42.664;23.278;2022-07-10T13:23:36;6.80;;;1.42;;
4466;SDS011;2246;42.664;23.278;2022-07-10T13:26:03;3.88;;;1.05;;
4466;SDS011;2246;42.664;23.278;2022-07-10T13:28:31;2.72;;;1.27;;
4466;SDS011;2246;42.664;23.278;2022-07-10T13:30:57;4.45;;;1.20;;
4466;SDS011;2246;42.664;23.278;2022-07-10T13:33:23;2.40;;;1.05;;
4466;SDS011;2246;42.664;23.278;2022-07-10T13:35:50;1.70;;;1.08;;
4466;SDS011;2246;42.664;23.278;2022-07-10T13:38:16;6.45;;;1.30;;
4466;SDS011;2246;42.664;23.278;2022-07-10T13:40:43;1.80;;;1.15;;
4466;SDS011;2246;42.664;23.278;2022-07-10T13:43:11;3.22;;;1.33;;
4466;SDS011;2246;42.664;23.278;2022-07-10T13:45:44;3.58;;;1.40;;
4466;SDS011;2246;42.664;23.278;2022-07-10T13:48:12;3.33;;;1.30;;
4466;SDS011;2246;42.664;23.278;2022-07-10T13:50:39;2.17;;;1.13;;
4466;SDS011;2246;42.664;23.278;2022-07-10T13:53:05;11.07;;;1.60;;
4466;SDS011;2246;42.664;23.278;2022-07-10T13:55:32;5.97;;;1.50;;
4466;SDS011;2246;42.664;23.278;2022-07-10T13:57:59;3.45;;;1.00;;
4466;SDS011;2246;42.664;23.278;2022-07-10T14:00:25;3.92;;;1.00;;
4466;SDS011;2246;42.664;23.278;2022-07-10T14:02:51;1.60;;;1.10;;
4466;SDS011;2246;42.664;23.278;2022-07-10T14:05:20;3.55;;;1.02;;
4466;SDS011;2246;42.664;23.278;2022-07-10T14:07:46;5.95;;;1.10;;
4466;SDS011;2246;42.664;23.278;2022-07-10T14:10:12;3.80;;;1.33;;
4466;SDS011;2246;42.664;23.278;2022-07-10T14:12:38;3.33;;;1.20;;
4466;SDS011;2246;42.664;23.278;2022-07-10T14:15:04;2.85;;;1.55;;
4466;SDS011;2246;42.664;23.278;2022-07-10T14:17:31;4.82;;;2.15;;
4466;SDS011;2246;42.664;23.278;2022-07-10T14:19:57;1.20;;;0.88;;
4466;SDS011;2246;42.664;23.278;2022-07-10T14:22:23;2.83;;;1.40;;
4466;SDS011;2246;42.664;23.278;2022-07-10T14:24:49;5.10;;;1.27;;
4466;SDS011;2246;42.664;23.278;2022-07-10T14:27:16;2.70;;;1.23;;
4466;SDS011;2246;42.664;23.278;2022-07-10T14:29:43;3.53;;;1.58;;
4466;SDS011;2246;42.664;23.278;2022-07-10T14:32:09;5.07;;;1.30;;
4466;SDS011;2246;42.664;23.278;2022-07-10T14:34:35;2.42;;;1.30;;
4466;SDS011;2246;42.664;23.278;2022-07-10T14:37:01;3.53;;;1.27;;
4466;SDS011;2246;42.664;23.278;2022-07-10T14:39:28;3.67;;;0.95;;
4466;SDS011;2246;42.664;23.278;2022-07-10T14:41:54;2.40;;;1.27;;
4466;SDS011;2246;42.664;23.278;2022-07-10T14:44:21;5.60;;;1.35;;
4466;SDS011;2246;42.664;23.278;2022-07-10T14:46:47;1.35;;;0.93;;
4466;SDS011;2246;42.664;23.278;2022-07-10T14:49:13;3.92;;;1.60;;
4466;SDS011;2246;42.664;23.278;2022-07-10T14:51:39;2.17;;;1.40;;
4466;SDS011;2246;42.664;23.278;2022-07-10T14:54:06;2.30;;;1.48;;
4466;SDS011;2246;42.664;23.278;2022-07-10T14:56:33;6.60;;;1.48;;
4466;SDS011;2246;42.664;23.278;2022-07-10T14:58:59;8.32;;;3.25;;
4466;SDS011;2246;42.664;23.278;2022-07-10T15:01:25;9.23;;;2.65;;
4466;SDS011;2246;42.664;23.278;2022-07-10T15:03:51;2.58;;;1.20;;
4466;SDS011;2246;42.664;23.278;2022-07-10T15:06:20;4.60;;;1.50;;
4466;SDS011;2246;42.664;23.278;2022-07-10T15:08:46;7.65;;;1.50;;
4466;SDS011;2246;42.664;23.278;2022-07-10T15:11:15;3.13;;;1.63;;
4466;SDS011;2246;42.664;23.278;2022-07-10T15:13:42;5.40;;;1.40;;
4466;SDS011;2246;42.664;23.278;2022-07-10T15:16:08;2.78;;;1.58;;
4466;SDS011;2246;42.664;23.278;2022-07-10T15:18:34;2.75;;;1.30;;
4466;SDS011;2246;42.664;23.278;2022-07-10T15:21:00;3.17;;;1.42;;
4466;SDS011;2246;42.664;23.278;2022-07-10T15:23:26;4.40;;;1.55;;
4466;SDS011;2246;42.664;23.278;2022-07-10T15:25:53;5.78;;;1.42;;
4466;SDS011;2246;42.664;23.278;2022-07-10T15:28:19;2.90;;;1.38;;
4466;SDS011;2246;42.664;23.278;2022-07-10T15:30:45;4.30;;;1.75;;
4466;SDS011;2246;42.664;23.278;2022-07-10T15:33:11;4.05;;;1.30;;
4466;SDS011;2246;42.664;23.278;2022-07-10T15:35:37;6.40;;;1.20;;
4466;SDS011;2246;42.664;23.278;2022-07-10T15:38:03;3.50;;;1.15;;